This is the latest recevied weather packets stored in our database for station/object EA1IOK-13. If no packets are shown the sender has not sent any weather packets the latest 10 day(s).
| Time | Temp. | Humidity | Pressure | Rain* | Wind** | Luminosity | Snow |
|---|---|---|---|---|---|---|---|
| 1778082650 | 17.78° C | 59% | 1011.4 hPa | 0 mm | - | - | - |
| 1778081749 | 16.67° C | 62% | 1011.6 hPa | 0 mm | - | - | - |
| 1778079950 | 17.78° C | 62% | 1011.9 hPa | 0 mm | - | - | - |
| 1778078377 | 17.22° C | 59% | 1012.3 hPa | 0 mm | - | - | - |
| 1778078149 | 17.22° C | 59% | 1012.3 hPa | 0 mm | - | - | - |
| 1778076348 | 15.56° C | 69% | 1012.8 hPa | 0 mm | - | - | - |
| 1778074551 | 16.11° C | 67% | 1013.3 hPa | 0 mm | - | - | - |
| 1778071060 | 16.67° C | 68% | 1013.8 hPa | 0 mm | - | - | - |
| 1778070950 | 16.67° C | 68% | 1013.8 hPa | 0 mm | - | - | - |
| 1778070160 | 15° C | 73% | 1014.1 hPa | 0 mm | - | - | - |
| 1778070049 | 15° C | 73% | 1014.1 hPa | 0 mm | - | - | - |
| 1778069150 | 14.44° C | 71% | 1014.3 hPa | 0 mm | - | - | - |
| 1778066449 | 15° C | 74% | 1014.7 hPa | 0 mm | - | - | - |
| 1778065551 | 13.33° C | 81% | 1015 hPa | 0 mm | - | - | - |
| 1778063858 | 12.22° C | 82% | 1015.1 hPa | 0 mm | - | - | - |
| 1778063749 | 12.22° C | 82% | 1015.1 hPa | 0 mm | - | - | - |
| 1778062948 | 11.67° C | 85% | 1015.2 hPa | 0 mm | - | - | - |
| 1778062851 | 11.67° C | 85% | 1015.2 hPa | 0 mm | - | - | - |
| 1778061951 | 11.67° C | 83% | 1015.2 hPa | 0 mm | - | - | - |
| 1778059251 | 11.11° C | 86% | 1015.2 hPa | 0 mm | - | - | - |
| 1778058349 | 11.11° C | 90% | 1015.2 hPa | 0 mm | - | - | - |
| 1778056550 | 10.56° C | 93% | 1015.1 hPa | 0 mm | - | - | - |
| 1778055657 | 9.44° C | 93% | 1015.2 hPa | 0 mm | - | - | - |
| 1778053850 | 9.44° C | 95% | 1015.4 hPa | 0 mm | - | - | - |
| 1778051150 | 8.33° C | 96% | 1015.4 hPa | 0 mm | - | - | - |
* Rain latest hour (hover to see other rain measurements)
** Current wind speed in m/s (hover to see current wind gust speed)